Bay Harbor Islands, Florida
Current Conditions -  °F | °C
As of 3:53 PM on Monday 24 Nov 2014 (Local Time) from KOPF Reporting Station
Few Clouds Few Clouds  
Wind Chill: 85°   Ceiling: Unl
Heat Index: 92°   Visibility: 10mi
Dew Point: 74°   Wind: 14mph
Humidity: 69%   Direction: 170°S
Pressure: 29.96"   Gusts: NA
Location:  25.882°N, 80.1292°W
Report Text: KOPF 242053Z 17012KT 10SM FEW023 29/23 A2996 RMK AO2 SLP146 T02940233 55003 $
Loading
Personal Weather Stations






























Interactive Weather Map New forecast layout! Learn more

10-Day Weather Forecast

Advertisements
Track Severe Weather on mobile